Time;durP1;ratioP1;P1;durP2;ratioP2;P2;SDS_P1;SDS_P2;PMS_P1;PMS_P2;Temp;Humidity;BMP_temperature;BMP_pressure;BME280_temperature;BME280_humidity;BME280_pressure;Samples;Min_cycle;Max_cycle;Signal;HPM_P1;HPM_P2
2023/08/19 00:00:47;;;;;;;19.27;16.42;;;;;;;22.03;78.28;98839.66;5025535;28;20029;-83
2023/08/19 00:03:13;;;;;;;21.40;17.42;;;;;;;21.92;78.66;98829.44;5021346;28;20437;-83
2023/08/19 00:05:38;;;;;;;21.52;18.55;;;;;;;22.01;78.40;98830.25;5022238;28;20036;-83
2023/08/19 00:08:04;;;;;;;22.10;17.42;;;;;;;21.95;77.93;98813.28;5022970;28;20032;-83
2023/08/19 00:10:29;;;;;;;20.02;17.35;;;;;;;21.94;78.15;98828.00;5020531;28;20045;-83
2023/08/19 00:12:55;;;;;;;30.83;19.08;;;;;;;21.83;78.40;98813.16;5023109;28;20033;-83
2023/08/19 00:15:21;;;;;;;20.15;18.02;;;;;;;21.87;78.39;98805.97;5021647;28;20041;-83
2023/08/19 00:17:47;;;;;;;25.52;18.48;;;;;;;21.92;78.21;98822.09;5013704;28;20041;-82
2023/08/19 00:20:12;;;;;;;22.55;17.65;;;;;;;21.79;78.42;98825.78;5012863;28;20030;-83
2023/08/19 00:22:38;;;;;;;27.55;18.63;;;;;;;21.68;78.91;98819.06;5030090;28;20036;-83
2023/08/19 00:25:07;;;;;;;23.75;20.00;;;;;;;21.77;78.81;98832.66;5013456;28;20033;-83
2023/08/19 00:27:33;;;;;;;26.55;19.05;;;;;;;21.77;78.64;98814.44;5036132;28;20033;-83
2023/08/19 00:29:58;;;;;;;23.65;19.67;;;;;;;21.79;78.88;98816.81;5042575;28;20033;-82
2023/08/19 00:32:23;;;;;;;23.45;19.75;;;;;;;21.75;78.41;98800.38;5006368;28;20065;-83
2023/08/19 00:34:49;;;;;;;22.30;19.55;;;;;;;21.69;78.93;98815.22;5016395;28;20040;-83
2023/08/19 00:37:14;;;;;;;24.98;19.77;;;;;;;21.62;78.70;98810.28;5016116;28;20287;-83
2023/08/19 00:39:40;;;;;;;27.92;20.20;;;;;;;21.60;79.12;98819.88;5022496;28;20048;-83
2023/08/19 00:42:09;;;;;;;24.88;20.20;;;;;;;21.51;79.38;98810.94;5008400;28;20022;-83
2023/08/19 00:44:34;;;;;;;24.10;21.42;;;;;;;21.59;79.52;98812.84;4992889;28;20037;-82
2023/08/19 00:47:03;;;;;;;25.50;21.73;;;;;;;21.52;79.27;98809.81;5027180;28;20080;-83
2023/08/19 00:49:30;;;;;;;27.60;21.20;;;;;;;21.55;79.32;98814.59;5025481;28;20191;-84
2023/08/19 00:51:57;;;;;;;26.73;22.00;;;;;;;21.52;79.20;98802.47;5030611;28;20025;-84
2023/08/19 00:54:22;;;;;;;31.33;22.23;;;;;;;21.58;79.21;98819.38;5011401;28;20030;-83
2023/08/19 00:56:48;;;;;;;30.02;22.13;;;;;;;21.38;79.65;98798.31;5027248;28;20032;-83
2023/08/19 00:59:13;;;;;;;24.23;20.70;;;;;;;21.40;79.71;98801.53;5005280;28;20048;-83
2023/08/19 01:01:39;;;;;;;24.88;20.77;;;;;;;21.50;79.61;98810.13;5009038;28;20060;-83
2023/08/19 01:04:04;;;;;;;26.67;20.52;;;;;;;21.51;79.62;98797.34;5038423;28;20034;-83
2023/08/19 01:06:41;;;;;;;26.77;20.52;;;;;;;21.47;79.41;98789.03;5010241;28;20041;-82
2023/08/19 01:09:29;;;;;;;29.83;21.83;;;;;;;21.47;79.69;98793.69;5042769;28;20091;-83
2023/08/19 01:12:14;;;;;;;26.77;22.02;;;;;;;21.46;79.39;98801.03;5024890;28;20060;-82
2023/08/19 01:15:05;;;;;;;27.53;21.73;;;;;;;21.43;79.22;98790.00;5027734;28;20108;-83
2023/08/19 01:17:32;;;;;;;28.35;22.23;;;;;;;21.33;79.60;98783.00;5025287;28;20777;-82
2023/08/19 01:19:57;;;;;;;29.92;22.77;;;;;;;21.42;79.59;98789.22;5028777;28;20033;-84
2023/08/19 01:22:59;;;;;;;28.88;22.10;;;;;;;21.35;79.99;98788.09;5024756;28;20548;-83
2023/08/19 01:25:26;;;;;;;31.50;23.77;;;;;;;21.34;80.18;98781.06;5045005;28;20025;-83
2023/08/19 01:27:51;;;;;;;28.95;24.45;;;;;;;21.33;80.18;98787.63;5024134;28;20792;-83
2023/08/19 01:30:17;;;;;;;33.58;26.73;;;;;;;21.40;79.94;98793.38;5009367;28;20053;-83
2023/08/19 01:32:43;;;;;;;34.22;25.98;;;;;;;21.34;80.06;98775.66;5028560;28;20460;-84
2023/08/19 01:35:11;;;;;;;33.92;27.00;;;;;;;21.35;80.36;98778.03;5028093;28;20021;-83
2023/08/19 01:38:14;;;;;;;33.13;26.05;;;;;;;21.35;80.70;98791.63;5026409;28;20463;-83
2023/08/19 01:40:40;;;;;;;36.15;28.08;;;;;;;21.36;80.48;98784.28;5023443;28;20037;-83
2023/08/19 01:43:08;;;;;;;40.53;29.60;;;;;;;21.23;80.95;98777.09;5027604;28;20041;-83
2023/08/19 01:45:34;;;;;;;36.65;29.02;;;;;;;21.19;81.10;98773.38;5039725;28;20029;-83
2023/08/19 01:48:01;;;;;;;34.70;28.25;;;;;;;21.20;81.23;98780.44;5028207;28;20104;-84
2023/08/19 01:50:26;;;;;;;45.08;29.10;;;;;;;21.23;81.55;98771.66;5026243;28;20337;-83
2023/08/19 01:52:52;;;;;;;36.95;29.35;;;;;;;21.21;81.40;98790.19;5006860;28;20381;-83
2023/08/19 01:55:17;;;;;;;41.70;30.55;;;;;;;21.24;81.39;98778.66;5008358;28;20126;-83
2023/08/19 01:57:43;;;;;;;37.50;28.20;;;;;;;21.22;81.46;98778.19;5024141;28;20025;-83
2023/08/19 02:00:08;;;;;;;35.47;28.05;;;;;;;21.32;81.41;98791.44;5028858;28;20100;-83
2023/08/19 02:02:34;;;;;;;44.75;32.00;;;;;;;21.20;81.93;98783.94;5026382;28;20030;-82
2023/08/19 02:04:59;;;;;;;40.15;30.15;;;;;;;21.26;81.78;98795.44;5026545;28;20035;-83
2023/08/19 02:07:24;;;;;;;40.78;30.55;;;;;;;21.23;81.43;98790.66;5025768;28;20025;-83
2023/08/19 02:09:50;;;;;;;39.42;29.27;;;;;;;21.16;81.43;98791.13;4982884;28;20120;-83
2023/08/19 02:12:15;;;;;;;49.40;35.63;;;;;;;20.98;82.47;98794.09;5019394;28;20049;-83
2023/08/19 02:14:40;;;;;;;42.05;32.33;;;;;;;21.12;82.46;98789.38;5021180;28;20399;-83
2023/08/19 02:17:06;;;;;;;46.85;32.00;;;;;;;21.12;82.14;98792.09;5029369;28;20116;-83
2023/08/19 02:19:31;;;;;;;42.75;31.40;;;;;;;21.25;81.67;98804.72;5011245;28;20029;-83
2023/08/19 02:21:57;;;;;;;43.10;31.70;;;;;;;21.18;82.24;98793.53;5037847;28;20026;-83
2023/08/19 02:24:22;;;;;;;40.60;32.53;;;;;;;21.20;82.21;98789.38;5021212;28;20029;-83
2023/08/19 02:26:47;;;;;;;41.83;32.95;;;;;;;21.15;81.86;98783.28;5011208;28;20370;-83
2023/08/19 02:29:13;;;;;;;44.30;31.80;;;;;;;21.10;82.29;98780.75;5010979;28;20033;-82
2023/08/19 02:31:38;;;;;;;40.97;31.77;;;;;;;21.11;82.49;98787.75;5029264;28;20092;-83
2023/08/19 02:34:04;;;;;;;42.85;31.33;;;;;;;21.14;82.26;98787.13;5030924;28;20037;-83
2023/08/19 02:36:29;;;;;;;44.72;31.75;;;;;;;21.17;82.27;98795.44;5042167;28;20031;-83
2023/08/19 02:38:55;;;;;;;45.92;31.90;;;;;;;21.05;82.25;98789.03;5024936;28;20072;-83
2023/08/19 02:41:20;;;;;;;40.00;31.58;;;;;;;21.00;82.37;98786.44;5026777;28;20413;-82
2023/08/19 02:43:45;;;;;;;44.45;31.33;;;;;;;21.01;83.38;98796.19;4994971;28;20033;-82
2023/08/19 02:46:11;;;;;;;42.17;32.80;;;;;;;21.07;82.42;98790.31;5046432;28;20029;-82
2023/08/19 02:48:36;;;;;;;39.75;30.40;;;;;;;20.99;82.64;98782.16;4998719;28;20047;-83
2023/08/19 02:51:02;;;;;;;41.10;31.55;;;;;;;21.03;82.44;98774.97;5011167;28;20521;-83
2023/08/19 02:53:28;;;;;;;48.05;32.38;;;;;;;21.07;82.11;98786.81;5029763;28;20033;-83
2023/08/19 02:55:54;;;;;;;46.60;31.50;;;;;;;20.96;81.56;98769.19;5025085;28;20056;-83
2023/08/19 02:58:20;;;;;;;41.45;31.52;;;;;;;20.89;82.62;98777.81;5035655;28;20031;-83
2023/08/19 03:00:47;;;;;;;40.42;30.52;;;;;;;20.90;81.93;98774.00;5036498;28;20120;-83
2023/08/19 03:03:13;;;;;;;42.95;33.03;;;;;;;20.87;82.36;98778.13;5022882;28;20036;-83
2023/08/19 03:05:39;;;;;;;42.60;31.27;;;;;;;20.86;82.74;98781.16;5042191;28;20393;-83
2023/08/19 03:08:05;;;;;;;44.40;30.63;;;;;;;20.88;82.88;98778.94;5020469;28;20033;-83
2023/08/19 03:10:39;;;;;;;51.35;33.15;;;;;;;20.80;82.88;98769.66;5038465;28;20383;-82
2023/08/19 03:13:06;;;;;;;40.55;31.85;;;;;;;20.92;82.60;98786.09;4982467;28;20092;-82
2023/08/19 03:15:33;;;;;;;39.95;32.33;;;;;;;20.87;82.31;98785.47;5023824;28;20113;-82
2023/08/19 03:17:59;;;;;;;39.83;30.45;;;;;;;20.79;82.33;98768.06;5023408;28;20037;-83
2023/08/19 03:20:24;;;;;;;44.60;30.50;;;;;;;20.86;83.04;98773.00;5024195;28;20037;-82
2023/08/19 03:22:50;;;;;;;42.08;30.45;;;;;;;20.78;82.97;98771.91;5025675;28;20072;-83
2023/08/19 03:25:16;;;;;;;40.97;30.73;;;;;;;20.71;82.92;98755.28;5028671;28;20045;-83
2023/08/19 03:27:41;;;;;;;40.58;31.02;;;;;;;20.71;82.79;98765.31;5020444;28;20014;-82
2023/08/19 03:30:07;;;;;;;40.90;29.63;;;;;;;20.73;82.89;98774.75;5027586;28;20037;-83
2023/08/19 03:32:33;;;;;;;40.78;31.95;;;;;;;20.74;82.69;98767.41;5020300;28;20038;-83
2023/08/19 03:34:58;;;;;;;43.70;31.20;;;;;;;20.69;83.16;98765.66;4987859;28;21939;-82
2023/08/19 03:37:24;;;;;;;37.50;30.25;;;;;;;20.73;83.20;98772.03;5026498;28;20034;-83
2023/08/19 03:39:50;;;;;;;37.25;30.23;;;;;;;20.70;83.39;98769.16;5039776;28;20044;-83
2023/08/19 03:42:15;;;;;;;42.75;30.63;;;;;;;20.77;83.33;98773.00;5037034;28;20195;-83
2023/08/19 03:44:41;;;;;;;44.30;31.63;;;;;;;20.81;82.69;98763.13;5029499;28;20046;-83
2023/08/19 03:47:06;;;;;;;43.33;33.42;;;;;;;20.70;83.33;98769.97;5005597;28;20025;-83
2023/08/19 03:49:31;;;;;;;42.70;33.33;;;;;;;20.77;83.22;98777.66;5026640;28;20029;-83
2023/08/19 03:51:57;;;;;;;41.35;32.08;;;;;;;20.71;83.28;98782.41;5003424;28;20037;-83
2023/08/19 03:54:22;;;;;;;40.90;32.72;;;;;;;20.49;83.28;98770.84;5012548;28;20033;-82
2023/08/19 03:56:47;;;;;;;42.55;31.75;;;;;;;20.65;83.85;98782.88;5019031;28;20672;-83
2023/08/19 03:59:13;;;;;;;42.15;33.00;;;;;;;20.70;83.17;98786.25;5024124;28;20033;-83
2023/08/19 04:01:39;;;;;;;45.25;31.50;;;;;;;20.69;83.82;98787.34;5012673;28;20025;-83
2023/08/19 04:04:06;;;;;;;44.83;30.95;;;;;;;20.61;83.52;98788.13;5038132;28;20408;-83
2023/08/19 04:06:32;;;;;;;52.20;37.33;;;;;;;20.31;84.77;98793.63;5044891;28;20124;-83
2023/08/19 04:08:57;;;;;;;43.75;31.67;;;;;;;20.56;84.61;98790.97;5027411;28;20535;-83
2023/08/19 04:11:23;;;;;;;45.83;30.58;;;;;;;20.53;84.33;98779.97;5027198;28;20042;-83
2023/08/19 04:13:48;;;;;;;41.60;32.10;;;;;;;20.54;84.29;98776.13;5009190;28;20068;-83
2023/08/19 04:16:13;;;;;;;43.50;32.88;;;;;;;20.50;83.95;98767.03;5043875;28;20057;-83
2023/08/19 04:18:39;;;;;;;43.35;31.23;;;;;;;20.67;83.52;98781.44;5021286;28;20030;-83
2023/08/19 04:21:06;;;;;;;42.30;31.70;;;;;;;20.65;83.78;98780.16;5025211;28;20025;-83
2023/08/19 04:23:32;;;;;;;43.05;34.47;;;;;;;20.68;83.75;98785.78;5024803;28;20087;-83
2023/08/19 04:25:58;;;;;;;41.70;31.33;;;;;;;20.60;83.92;98774.88;5022135;28;20535;-83
2023/08/19 04:28:23;;;;;;;49.08;31.95;;;;;;;20.65;83.97;98789.09;5019909;28;20037;-83
2023/08/19 04:30:49;;;;;;;40.60;29.23;;;;;;;20.51;83.96;98785.69;5024235;28;20489;-83
2023/08/19 04:33:14;;;;;;;40.17;32.08;;;;;;;20.58;83.60;98775.19;5007696;28;20849;-83
2023/08/19 04:35:40;;;;;;;36.17;30.05;;;;;;;20.49;83.96;98790.63;5007102;28;20040;-83
2023/08/19 04:38:05;;;;;;;40.15;32.42;;;;;;;20.53;83.58;98783.47;5023346;28;20485;-83
2023/08/19 04:40:31;;;;;;;38.72;30.65;;;;;;;20.52;83.67;98800.06;5008892;28;20041;-83
2023/08/19 04:42:57;;;;;;;44.03;31.17;;;;;;;20.44;83.73;98788.09;4990430;28;20030;-83
2023/08/19 04:45:23;;;;;;;41.33;31.73;;;;;;;20.48;84.07;98802.63;5016466;28;20025;-82
2023/08/19 04:47:49;;;;;;;40.70;30.33;;;;;;;20.53;83.56;98807.09;5042473;28;20029;-83
2023/08/19 04:50:14;;;;;;;36.65;29.02;;;;;;;20.39;83.80;98796.34;5031340;28;20068;-83
2023/08/19 04:52:40;;;;;;;35.20;28.00;;;;;;;20.46;83.86;98798.63;5023711;28;20041;-83
2023/08/19 04:55:05;;;;;;;36.92;28.35;;;;;;;20.61;83.37;98804.41;5021499;28;20037;-84
2023/08/19 04:57:31;;;;;;;35.72;27.45;;;;;;;20.57;83.33;98798.03;5024895;28;20095;-84
2023/08/19 04:59:56;;;;;;;38.55;27.60;;;;;;;20.63;82.82;98794.03;5024567;28;20116;-83
2023/08/19 05:02:22;;;;;;;33.45;27.88;;;;;;;20.73;83.28;98809.22;5042837;28;20083;-83
2023/08/19 05:04:47;;;;;;;38.35;28.65;;;;;;;20.70;82.83;98797.09;5025442;28;20087;-83
2023/08/19 05:07:12;;;;;;;38.35;27.58;;;;;;;20.78;82.52;98785.47;4992756;28;20465;-83
2023/08/19 05:09:38;;;;;;;35.53;27.42;;;;;;;20.92;82.22;98791.53;5029930;28;20037;-84
2023/08/19 05:12:03;;;;;;;33.72;27.25;;;;;;;21.02;82.35;98798.59;5022253;28;20391;-83
2023/08/19 05:14:29;;;;;;;33.85;26.98;;;;;;;20.89;82.77;98791.38;5004197;28;20030;-83
2023/08/19 05:16:54;;;;;;;35.78;29.05;;;;;;;20.86;83.16;98795.53;5007096;28;20028;-83
2023/08/19 05:19:20;;;;;;;38.60;28.95;;;;;;;20.88;83.58;98809.56;5010283;28;20128;-83
2023/08/19 05:21:48;;;;;;;35.95;30.50;;;;;;;21.06;83.12;98807.72;5023286;28;20501;-83
2023/08/19 05:24:14;;;;;;;38.20;30.58;;;;;;;20.98;83.11;98805.75;5023608;28;20044;-83
2023/08/19 05:26:40;;;;;;;42.88;31.40;;;;;;;20.86;84.53;98814.50;5006226;28;20048;-83
2023/08/19 05:29:06;;;;;;;41.28;30.33;;;;;;;20.92;84.01;98812.47;5027336;28;20025;-83
2023/08/19 05:31:31;;;;;;;47.03;33.67;;;;;;;20.79;85.82;98816.88;5023236;28;20382;-82
2023/08/19 05:33:57;;;;;;;42.55;30.98;;;;;;;20.77;86.29;98816.41;5025451;28;20029;-83
2023/08/19 05:36:22;;;;;;;47.15;37.05;;;;;;;20.77;86.12;98808.25;5022492;28;20037;-83
2023/08/19 05:38:47;;;;;;;43.38;32.28;;;;;;;21.11;83.73;98813.00;5027924;28;20021;-83
2023/08/19 05:41:13;;;;;;;40.58;31.73;;;;;;;21.27;83.14;98825.00;5013625;28;20157;-83
2023/08/19 05:43:38;;;;;;;39.95;29.65;;;;;;;21.39;82.79;98822.44;5037102;28;20057;-83
2023/08/19 05:46:05;;;;;;;36.67;29.55;;;;;;;21.42;82.55;98810.13;5028777;28;20103;-83
2023/08/19 05:48:31;;;;;;;38.00;28.20;;;;;;;21.45;82.80;98828.50;5027237;28;20044;-82
2023/08/19 05:50:56;;;;;;;40.60;32.33;;;;;;;21.32;85.38;98824.81;5038144;28;20059;-83
2023/08/19 05:53:22;;;;;;;39.17;30.45;;;;;;;21.57;82.46;98831.38;5027620;28;20085;-83
2023/08/19 05:55:47;;;;;;;43.40;30.63;;;;;;;21.43;84.71;98828.00;5010408;28;20521;-83
2023/08/19 05:58:13;;;;;;;38.45;32.03;;;;;;;21.54;85.38;98837.44;4996738;28;20468;-83
2023/08/19 06:00:39;;;;;;;38.10;29.52;;;;;;;21.66;85.32;98840.34;5026483;28;20843;-83
2023/08/19 06:03:04;;;;;;;32.58;25.92;;;;;;;21.70;81.97;98827.69;5007432;28;20048;-83
2023/08/19 06:05:29;;;;;;;33.22;27.05;;;;;;;21.57;83.31;98818.59;5033054;28;20044;-83
2023/08/19 06:07:55;;;;;;;38.42;29.17;;;;;;;21.63;85.62;98828.19;5005138;28;20068;-84
2023/08/19 06:10:20;;;;;;;32.70;26.60;;;;;;;21.56;85.11;98829.78;5011741;28;20048;-83
2023/08/19 06:12:45;;;;;;;31.05;24.50;;;;;;;21.90;81.43;98827.06;5039914;28;20159;-83
2023/08/19 06:15:11;;;;;;;39.20;30.15;;;;;;;21.70;88.08;98840.47;5021515;28;20032;-83
2023/08/19 06:17:36;;;;;;;33.63;27.85;;;;;;;21.74;85.99;98827.84;5023697;28;20030;-83
2023/08/19 06:20:02;;;;;;;31.70;24.90;;;;;;;21.88;82.96;98845.63;5009474;28;20061;-83
2023/08/19 06:22:27;;;;;;;35.13;28.02;;;;;;;21.84;85.90;98835.72;5028679;28;20959;-84
2023/08/19 06:24:52;;;;;;;28.05;24.13;;;;;;;22.08;82.31;98846.84;5025039;28;20161;-83
2023/08/19 06:27:18;;;;;;;32.10;26.42;;;;;;;22.08;84.36;98844.91;5027014;28;20048;-83
2023/08/19 06:29:43;;;;;;;37.70;28.48;;;;;;;22.00;86.09;98842.22;5001384;28;20051;-83
2023/08/19 06:32:09;;;;;;;36.35;27.50;;;;;;;21.84;88.19;98854.72;5019520;28;20168;-83
2023/08/19 06:34:35;;;;;;;37.55;28.13;;;;;;;21.78;89.19;98845.09;5027476;28;20894;-83
2023/08/19 06:37:03;;;;;;;36.53;28.52;;;;;;;21.80;88.86;98857.25;4987574;28;20029;-83
2023/08/19 06:39:32;;;;;;;33.67;27.90;;;;;;;21.92;87.52;98852.00;5025469;28;20056;-83
2023/08/19 06:42:05;;;;;;;35.35;30.17;;;;;;;21.78;88.06;98847.81;5005474;28;20516;-83
2023/08/19 06:44:33;;;;;;;38.72;29.45;;;;;;;21.72;88.53;98855.34;5040894;28;20489;-82
2023/08/19 06:47:00;;;;;;;26.33;23.52;;;;;;;22.05;84.10;98848.31;5018182;28;20081;-83
2023/08/19 06:49:26;;;;;;;34.25;28.33;;;;;;;22.06;87.74;98863.47;5021908;28;20030;-83
2023/08/19 06:51:54;;;;;;;40.33;30.23;;;;;;;22.10;87.16;98863.66;5023260;28;20515;-83
2023/08/19 06:54:20;;;;;;;25.85;22.98;;;;;;;22.12;84.93;98854.06;5040456;28;20033;-83
2023/08/19 06:57:08;;;;;;;35.55;28.33;;;;;;;21.94;86.00;98854.38;5026615;28;20036;-84
2023/08/19 06:59:36;;;;;;;38.90;29.42;;;;;;;21.85;88.95;98846.25;5027928;28;20044;-84
2023/08/19 07:02:03;;;;;;;33.83;27.23;;;;;;;22.09;85.33;98849.25;5019273;28;20048;-84
2023/08/19 07:04:29;;;;;;;33.90;26.45;;;;;;;22.15;83.72;98839.78;5023648;28;20029;-84
2023/08/19 07:07:00;;;;;;;30.95;24.92;;;;;;;22.05;84.60;98839.34;5016896;28;20412;-84
2023/08/19 07:09:26;;;;;;;31.63;25.75;;;;;;;22.21;84.50;98849.34;5025309;28;21632;-84
2023/08/19 07:11:56;;;;;;;28.83;23.38;;;;;;;22.36;83.44;98853.50;5019905;28;20131;-84
2023/08/19 07:14:26;;;;;;;27.00;23.67;;;;;;;22.31;83.87;98854.47;5007164;28;20029;-84
2023/08/19 07:16:54;;;;;;;33.88;24.70;;;;;;;22.02;87.69;98845.41;5020299;28;20033;-83
2023/08/19 07:19:27;;;;;;;28.00;22.10;;;;;;;22.43;83.04;98845.63;5021200;28;20021;-84
2023/08/19 07:21:54;;;;;;;25.48;21.90;;;;;;;22.19;84.70;98835.28;5009590;28;20033;-84
2023/08/19 07:24:20;;;;;;;24.48;21.67;;;;;;;22.58;83.58;98853.25;5026697;28;20045;-84
2023/08/19 07:26:48;;;;;;;21.50;19.08;;;;;;;22.32;86.27;98850.59;5032077;28;20580;-84
2023/08/19 07:29:13;;;;;;;24.27;19.98;;;;;;;22.34;85.93;98842.91;5025432;28;20047;-84
2023/08/19 07:31:40;;;;;;;22.48;19.92;;;;;;;22.49;84.03;98838.88;5020850;28;20041;-85
2023/08/19 07:34:05;;;;;;;23.30;18.92;;;;;;;22.57;83.71;98840.75;5023452;28;20041;-84
2023/08/19 07:36:30;;;;;;;21.77;18.10;;;;;;;22.57;83.88;98851.66;5018667;28;20159;-84
2023/08/19 07:38:56;;;;;;;20.95;18.35;;;;;;;22.82;81.96;98858.13;4989800;28;20021;-83
2023/08/19 07:41:21;;;;;;;21.63;18.80;;;;;;;22.85;82.82;98860.19;5019718;28;20037;-84
2023/08/19 07:43:47;;;;;;;24.08;19.30;;;;;;;23.21;81.78;98878.72;5008920;28;20429;-84
2023/08/19 07:46:17;;;;;;;24.85;18.67;;;;;;;23.12;81.49;98862.44;5041933;28;20083;-84
2023/08/19 07:48:44;;;;;;;22.33;16.85;;;;;;;23.15;81.36;98861.78;5024789;28;20022;-84
2023/08/19 07:51:09;;;;;;;16.67;15.05;;;;;;;23.10;81.79;98842.91;5021182;28;20449;-84
2023/08/19 07:53:35;;;;;;;17.65;15.85;;;;;;;23.49;79.61;98856.13;5015769;28;20143;-85
2023/08/19 07:56:00;;;;;;;16.95;13.18;;;;;;;23.56;78.69;98853.66;4983477;28;20049;-84
2023/08/19 07:58:26;;;;;;;18.20;14.38;;;;;;;23.78;78.43;98856.06;5025459;28;20391;-85
2023/08/19 08:00:51;;;;;;;16.90;14.50;;;;;;;23.71;79.03;98855.78;5029853;28;20033;-85
2023/08/19 08:03:17;;;;;;;16.40;14.48;;;;;;;23.69;79.28;98849.06;5009965;28;20037;-85
2023/08/19 08:05:42;;;;;;;16.85;14.18;;;;;;;24.10;76.56;98856.41;4987887;28;20037;-85
2023/08/19 08:08:08;;;;;;;14.20;12.77;;;;;;;23.88;78.34;98848.56;5022587;28;20041;-84
2023/08/19 08:10:33;;;;;;;13.20;11.82;;;;;;;23.82;77.94;98846.06;5012216;28;20072;-84
2023/08/19 08:12:58;;;;;;;16.65;14.75;;;;;;;24.07;77.03;98855.13;5024791;28;20031;-85
2023/08/19 08:15:24;;;;;;;13.20;11.88;;;;;;;24.13;77.70;98872.09;5009135;28;20033;-84
2023/08/19 08:17:49;;;;;;;13.88;12.48;;;;;;;24.47;75.95;98875.25;5028291;28;20026;-85
2023/08/19 08:20:15;;;;;;;14.18;12.75;;;;;;;24.00;76.78;98826.81;5038097;28;20041;-85
2023/08/19 08:22:40;;;;;;;14.40;12.90;;;;;;;24.45;75.70;98869.34;5005785;28;20040;-84
2023/08/19 08:25:06;;;;;;;16.40;13.25;;;;;;;24.35;75.93;98863.53;5039506;28;20029;-85
2023/08/19 08:27:31;;;;;;;12.50;11.30;;;;;;;24.42;77.47;98867.28;5023395;28;20022;-84
2023/08/19 08:29:56;;;;;;;13.20;11.35;;;;;;;24.49;75.75;98869.44;5018037;28;20386;-84
2023/08/19 08:32:22;;;;;;;12.85;11.65;;;;;;;24.65;75.36;98864.91;5022909;28;20026;-85
2023/08/19 08:34:47;;;;;;;11.77;10.57;;;;;;;24.58;75.36;98861.94;5024769;28;20025;-85
2023/08/19 08:37:13;;;;;;;11.02;9.90;;;;;;;24.55;75.07;98851.72;5042349;28;20060;-84
2023/08/19 08:39:38;;;;;;;11.40;10.32;;;;;;;24.63;74.74;98858.22;5012902;28;20079;-84
2023/08/19 08:42:04;;;;;;;10.77;9.88;;;;;;;24.61;73.93;98842.19;5025881;28;20045;-84
2023/08/19 08:44:32;;;;;;;11.48;9.27;;;;;;;24.82;73.63;98847.53;5027064;28;20034;-85
2023/08/19 08:46:58;;;;;;;11.68;10.32;;;;;;;24.75;74.12;98839.91;5019883;28;20036;-85
2023/08/19 08:49:27;;;;;;;10.80;9.80;;;;;;;24.96;73.84;98864.41;5027397;28;21768;-85
2023/08/19 08:51:54;;;;;;;11.48;10.45;;;;;;;24.89;73.33;98859.50;5025689;28;20048;-85
2023/08/19 08:54:22;;;;;;;12.15;10.50;;;;;;;24.99;73.61;98852.75;5028730;28;20048;-84
2023/08/19 08:56:47;;;;;;;11.40;10.30;;;;;;;24.95;73.46;98854.59;5047949;28;20033;-84
2023/08/19 08:59:13;;;;;;;10.55;9.55;;;;;;;25.16;73.68;98850.59;5028323;28;20313;-84
2023/08/19 09:01:41;;;;;;;11.30;10.27;;;;;;;25.18;74.01;98853.00;5026103;28;20033;-84
2023/08/19 09:04:08;;;;;;;12.10;10.70;;;;;;;25.20;73.46;98847.97;5025525;28;22362;-84
2023/08/19 09:06:37;;;;;;;11.38;10.27;;;;;;;25.22;73.48;98845.69;5030534;28;20030;-84
2023/08/19 09:09:08;;;;;;;10.77;8.95;;;;;;;25.34;73.52;98842.16;5030490;28;20035;-85
2023/08/19 09:11:44;;;;;;;11.23;8.82;;;;;;;25.37;71.52;98844.19;5029743;28;20034;-85
2023/08/19 09:14:36;;;;;;;12.25;9.10;;;;;;;25.40;71.02;98849.75;5015142;28;20053;-85
2023/08/19 09:17:02;;;;;;;10.52;9.48;;;;;;;25.45;72.47;98846.81;5025202;28;20017;-85
2023/08/19 09:19:27;;;;;;;9.52;8.40;;;;;;;25.74;70.43;98851.97;5024667;28;20107;-85
2023/08/19 09:21:52;;;;;;;9.55;8.20;;;;;;;25.81;69.01;98843.16;5028565;28;20030;-84
2023/08/19 09:24:18;;;;;;;9.35;8.25;;;;;;;25.78;70.46;98852.03;5024721;28;20551;-84
2023/08/19 09:26:44;;;;;;;8.48;7.78;;;;;;;26.02;67.66;98841.00;5043275;28;20025;-84
2023/08/19 09:29:11;;;;;;;10.90;7.55;;;;;;;26.24;66.30;98850.59;5027121;28;20393;-85
2023/08/19 09:31:40;;;;;;;7.90;7.05;;;;;;;26.24;65.15;98854.13;5050147;28;20492;-85
2023/08/19 09:34:06;;;;;;;7.68;7.00;;;;;;;26.23;64.06;98843.53;5031201;28;20120;-85
2023/08/19 09:36:31;;;;;;;7.97;7.28;;;;;;;26.22;64.91;98842.75;5004524;28;20553;-85
2023/08/19 09:38:57;;;;;;;9.95;7.13;;;;;;;26.20;66.20;98855.97;4993078;28;20053;-85
2023/08/19 09:41:32;;;;;;;8.07;7.38;;;;;;;26.27;64.88;98834.28;5046073;28;20118;-84
2023/08/19 09:43:58;;;;;;;10.27;7.68;;;;;;;26.15;66.95;98828.06;5029477;28;20029;-84
2023/08/19 09:46:34;;;;;;;39.78;9.82;;;;;;;26.63;64.02;98850.44;5014856;28;20542;-83
2023/08/19 09:48:59;;;;;;;;;;;;;;;26.73;64.57;98838.97;5032008;28;20079;-83
2023/08/19 09:51:27;;;;;;;20.48;8.73;;;;;;;26.71;65.03;98837.72;5028605;28;19921;-86
2023/08/19 09:53:53;;;;;;;9.23;7.13;;;;;;;26.85;64.21;98842.75;5031060;28;20029;-85
2023/08/19 09:56:24;;;;;;;18.38;7.05;;;;;;;26.94;62.40;98835.16;5029175;28;20034;-86
2023/08/19 09:58:51;;;;;;;8.43;7.15;;;;;;;27.04;62.58;98834.63;5013639;28;20695;-85
2023/08/19 10:01:17;;;;;;;7.43;6.63;;;;;;;27.22;62.86;98827.56;5032177;28;20146;-86
2023/08/19 10:03:43;;;;;;;6.95;6.22;;;;;;;27.28;61.90;98835.16;5013511;28;20029;-86
2023/08/19 10:06:11;;;;;;;165.63;54.28;;;;;;;27.48;61.39;98827.00;5025617;28;20028;-86
2023/08/19 10:08:42;;;;;;;308.02;114.85;;;;;;;27.58;61.95;98838.19;4995641;28;20042;-84
2023/08/19 10:11:08;;;;;;;105.70;42.72;;;;;;;27.57;62.68;98828.34;5034169;28;20107;-86
2023/08/19 10:13:35;;;;;;;290.90;112.30;;;;;;;27.53;60.43;98785.56;5033707;28;20041;-85
2023/08/19 10:16:04;;;;;;;132.38;52.25;;;;;;;27.97;60.11;98838.97;5047167;28;20028;-87
2023/08/19 10:18:35;;;;;;;211.70;76.57;;;;;;;27.63;60.93;98793.22;5032707;28;20038;-86
2023/08/19 10:21:05;;;;;;;622.25;239.82;;;;;;;28.23;60.46;98849.28;5016526;28;20047;-86
2023/08/19 10:23:31;;;;;;;773.35;323.98;;;;;;;28.38;59.20;98851.91;5032534;28;20061;-86
2023/08/19 10:25:58;;;;;;;413.67;159.40;;;;;;;28.27;60.06;98845.44;5028478;28;20036;-87
2023/08/19 10:28:25;;;;;;;239.60;83.63;;;;;;;28.55;59.54;98851.41;5032209;28;20212;-87
2023/08/19 10:31:10;;;;;;;57.38;24.33;;;;;;;28.56;59.26;98830.25;5027379;28;20030;-86
2023/08/19 10:33:40;;;;;;;21.67;10.23;;;;;;;28.86;59.16;98833.91;5031672;28;20032;-86
2023/08/19 10:36:07;;;;;;;10.32;7.90;;;;;;;28.84;59.26;98820.53;5037218;28;20025;-86
2023/08/19 10:38:47;;;;;;;10.43;6.72;;;;;;;28.97;57.13;98834.06;5014043;28;20026;-86
2023/08/19 10:41:25;;;;;;;7.65;6.88;;;;;;;28.98;57.55;98824.66;5040264;28;20025;-86
2023/08/19 10:44:00;;;;;;;7.28;6.25;;;;;;;29.00;58.17;98823.13;5026131;28;20053;-88
2023/08/19 10:46:39;;;;;;;10.02;7.53;;;;;;;29.06;58.86;98813.38;5022608;28;20029;-87
2023/08/19 10:49:12;;;;;;;7.13;5.93;;;;;;;29.36;57.70;98816.19;5053823;28;20021;-86
2023/08/19 10:52:00;;;;;;;11.23;6.00;;;;;;;29.55;56.72;98813.31;5028692;28;20039;-85
2023/08/19 10:54:40;;;;;;;10.43;6.10;;;;;;;29.80;56.44;98817.16;5032367;28;20481;-87
2023/08/19 10:57:23;;;;;;;7.72;6.70;;;;;;;29.82;57.37;98814.00;5043167;28;20017;-86
2023/08/19 10:59:59;;;;;;;7.00;5.95;;;;;;;30.08;56.76;98811.94;5047533;28;20029;-86
2023/08/19 11:02:30;;;;;;;11.27;6.80;;;;;;;30.30;56.55;98812.94;5027223;28;20029;-86
2023/08/19 11:04:57;;;;;;;9.50;5.80;;;;;;;30.56;55.08;98809.28;5030735;28;20029;-86
2023/08/19 11:07:24;;;;;;;6.95;5.63;;;;;;;30.62;54.95;98811.31;5044684;28;20376;-86
2023/08/19 11:09:54;;;;;;;8.18;6.60;;;;;;;30.75;54.50;98798.81;5042168;28;20067;-87
2023/08/19 11:12:21;;;;;;;6.90;6.22;;;;;;;30.79;53.75;98802.38;5032058;28;20037;-87
2023/08/19 11:14:47;;;;;;;8.48;5.32;;;;;;;30.93;53.44;98801.72;5020162;28;20029;-86
2023/08/19 11:17:13;;;;;;;9.35;6.05;;;;;;;31.03;53.21;98801.78;5026095;28;20394;-87
2023/08/19 11:19:38;;;;;;;9.13;5.63;;;;;;;31.16;53.71;98799.47;5032034;28;20030;-86